Time,TemperatureF,DewpointF,PressureIn,WindDirection,WindDirectionDegrees,WindSpeedMPH,WindSpeedGustMPH,Humidity,HourlyPrecipIn,Conditions,Clouds,dailyrainin,SolarRadiationWatts/m^2,SoftwareType,DateUTC
2013-11-18 00:02:00,65.0,65.0,-100.00,NNE,12,0.0,1.0,100,0.00,,,0.05,0.000000,,2013-11-18 06:02:00,
2013-11-18 00:42:00,64.0,64.0,-100.00,NNE,12,0.0,0.0,100,0.00,,,0.02,0.000000,,2013-11-18 06:42:00,
2013-11-18 00:52:00,64.0,64.0,-100.00,NNE,12,0.0,0.0,100,0.00,,,0.02,0.000000,,2013-11-18 06:52:00,
2013-11-18 01:01:00,64.0,64.0,-100.00,NNE,12,0.0,0.0,100,0.00,,,0.02,0.000000,,2013-11-18 07:01:00,
2013-11-18 01:42:00,63.0,63.0,-100.00,NNE,12,0.0,1.0,100,0.00,,,0.01,0.000000,,2013-11-18 07:42:00,
2013-11-18 01:52:00,63.0,63.0,-100.00,NNE,12,0.0,1.0,100,0.00,,,0.01,0.000000,,2013-11-18 07:52:00,
2013-11-18 02:01:00,63.0,63.0,-100.00,NNE,12,0.0,1.0,100,0.00,,,0.01,0.000000,,2013-11-18 08:01:00,
2013-11-18 02:22:00,66.0,66.0,-100.00,North,353,2.0,4.0,100,0.00,,,0.01,0.000000,,2013-11-18 08:22:00,
2013-11-18 02:32:00,66.0,66.0,-100.00,North,353,2.0,4.0,100,0.00,,,0.01,0.000000,,2013-11-18 08:32:00,
2013-11-18 02:42:00,66.0,66.0,-100.00,North,353,2.0,4.0,100,0.00,,,0.01,0.000000,,2013-11-18 08:42:00,
2013-11-18 02:52:00,66.0,66.0,-100.00,North,353,2.0,4.0,100,0.00,,,0.01,0.000000,,2013-11-18 08:52:00,
2013-11-18 03:02:00,66.0,66.0,-100.00,North,353,2.0,4.0,100,0.00,,,0.01,0.000000,,2013-11-18 09:02:00,
2013-11-18 03:03:00,67.0,67.0,-100.00,NNW,339,2.0,4.0,100,0.00,,,0.01,0.000000,,2013-11-18 09:03:00,
2013-11-18 03:43:00,67.0,67.0,-100.00,NNW,339,2.0,4.0,100,0.00,,,0.01,0.000000,,2013-11-18 09:43:00,
2013-11-18 03:53:00,67.0,67.0,-100.00,NNW,339,2.0,4.0,100,0.00,,,0.01,0.000000,,2013-11-18 09:53:00,
2013-11-18 04:43:00,65.0,62.0,-100.00,NE,53,5.0,11.0,89,0.00,,,0.01,0.000000,,2013-11-18 10:43:00,
2013-11-18 04:53:00,65.0,62.0,-100.00,NE,53,5.0,11.0,89,0.00,,,0.01,0.000000,,2013-11-18 10:53:00,
2013-11-18 05:02:00,65.0,62.0,-100.00,NE,53,5.0,11.0,89,0.00,,,0.01,0.000000,,2013-11-18 11:02:00,
2013-11-18 05:42:00,64.0,56.0,-100.00,NE,56,6.0,14.0,74,0.00,,,0.00,0.000000,,2013-11-18 11:42:00,
2013-11-18 05:52:00,64.0,56.0,-100.00,NE,56,6.0,14.0,74,0.00,,,0.00,0.000000,,2013-11-18 11:52:00,
2013-11-18 06:02:00,64.0,56.0,-100.00,NE,56,6.0,14.0,74,0.00,,,0.00,0.000000,,2013-11-18 12:02:00,
2013-11-18 06:42:00,63.0,51.0,-100.00,ENE,59,6.0,13.0,64,0.00,,,0.00,0.000000,,2013-11-18 12:42:00,
2013-11-18 06:52:00,63.0,51.0,-100.00,ENE,59,6.0,13.0,64,0.00,,,0.00,0.000000,,2013-11-18 12:52:00,
2013-11-18 07:01:00,63.0,51.0,-100.00,ENE,59,6.0,13.0,64,0.00,,,0.00,0.000000,,2013-11-18 13:01:00,
2013-11-18 07:42:00,63.0,48.0,-100.00,ENE,58,6.0,11.0,59,0.00,,,0.00,2.000000,,2013-11-18 13:42:00,
2013-11-18 07:52:00,63.0,48.0,-100.00,ENE,58,6.0,11.0,59,0.00,,,0.00,2.000000,,2013-11-18 13:52:00,
2013-11-18 08:02:00,63.0,48.0,-100.00,ENE,58,6.0,11.0,59,0.00,,,0.00,2.000000,,2013-11-18 14:02:00,
2013-11-18 08:42:00,65.0,46.0,-100.00,ENE,75,4.0,10.0,50,0.00,,,0.00,99.000000,,2013-11-18 14:42:00,
2013-11-18 08:52:00,65.0,46.0,-100.00,ENE,75,4.0,10.0,50,0.00,,,0.00,99.000000,,2013-11-18 14:52:00,
2013-11-18 09:01:00,65.0,46.0,-100.00,ENE,75,4.0,10.0,50,0.00,,,0.00,99.000000,,2013-11-18 15:01:00,
2013-11-18 09:03:00,68.0,43.0,-100.00,East,80,7.0,13.0,41,0.00,,,0.00,283.000000,,2013-11-18 15:03:00,
2013-11-18 09:43:00,68.0,43.0,-100.00,East,80,7.0,13.0,41,0.00,,,0.00,283.000000,,2013-11-18 15:43:00,
2013-11-18 09:54:00,68.0,43.0,-100.00,East,80,7.0,13.0,41,0.00,,,0.00,283.000000,,2013-11-18 15:54:00,
2013-11-18 10:43:00,71.0,42.0,-100.00,East,84,8.0,17.0,35,0.00,,,0.00,473.000000,,2013-11-18 16:43:00,
2013-11-18 10:52:00,71.0,42.0,-100.00,East,84,8.0,17.0,35,0.00,,,0.00,473.000000,,2013-11-18 16:52:00,
2013-11-18 11:02:00,71.0,42.0,-100.00,East,84,8.0,17.0,35,0.00,,,0.00,473.000000,,2013-11-18 17:02:00,
2013-11-18 11:22:00,73.0,41.0,-100.00,East,84,8.0,16.0,31,0.00,,,0.00,563.000000,,2013-11-18 17:22:00,
2013-11-18 11:33:00,73.0,41.0,-100.00,East,84,8.0,16.0,31,0.00,,,0.00,563.000000,,2013-11-18 17:33:00,
2013-11-18 11:43:00,73.0,41.0,-100.00,East,84,8.0,16.0,31,0.00,,,0.00,563.000000,,2013-11-18 17:43:00,
2013-11-18 11:52:00,73.0,41.0,-100.00,East,84,8.0,16.0,31,0.00,,,0.00,563.000000,,2013-11-18 17:52:00,
2013-11-18 12:02:00,73.0,41.0,-100.00,East,84,8.0,16.0,31,0.00,,,0.00,563.000000,,2013-11-18 18:02:00,
2013-11-18 12:42:00,75.0,39.0,-100.00,East,81,9.0,16.0,27,0.00,,,0.00,696.000000,,2013-11-18 18:42:00,
2013-11-18 12:52:00,75.0,39.0,-100.00,East,81,9.0,16.0,27,0.00,,,0.00,696.000000,,2013-11-18 18:52:00,
2013-11-18 13:01:00,75.0,39.0,-100.00,East,81,9.0,16.0,27,0.00,,,0.00,696.000000,,2013-11-18 19:01:00,
2013-11-18 13:42:00,78.0,40.0,-100.00,ENE,72,6.0,18.0,26,0.00,,,0.00,696.000000,,2013-11-18 19:42:00,
2013-11-18 13:52:00,78.0,40.0,-100.00,ENE,72,6.0,18.0,26,0.00,,,0.00,696.000000,,2013-11-18 19:52:00,
2013-11-18 14:01:00,78.0,40.0,-100.00,ENE,72,6.0,18.0,26,0.00,,,0.00,696.000000,,2013-11-18 20:01:00,
2013-11-18 14:22:00,77.0,35.0,-100.00,ENE,59,9.0,16.0,22,0.00,,,0.00,623.000000,,2013-11-18 20:22:00,
2013-11-18 14:32:00,77.0,35.0,-100.00,ENE,59,9.0,16.0,22,0.00,,,0.00,623.000000,,2013-11-18 20:32:00,
2013-11-18 14:42:00,77.0,35.0,-100.00,ENE,59,9.0,16.0,22,0.00,,,0.00,623.000000,,2013-11-18 20:42:00,
2013-11-18 14:52:00,77.0,35.0,-100.00,ENE,59,9.0,16.0,22,0.00,,,0.00,623.000000,,2013-11-18 20:52:00,
2013-11-18 15:02:00,77.0,35.0,-100.00,ENE,59,9.0,16.0,22,0.00,,,0.00,623.000000,,2013-11-18 21:02:00,
2013-11-18 15:03:00,77.0,37.0,-100.00,NE,49,9.0,16.0,24,0.00,,,0.00,491.000000,,2013-11-18 21:03:00,
2013-11-18 15:43:00,77.0,37.0,-100.00,NE,49,9.0,16.0,24,0.00,,,0.00,491.000000,,2013-11-18 21:43:00,
2013-11-18 15:54:00,77.0,37.0,-100.00,NE,49,9.0,16.0,24,0.00,,,0.00,491.000000,,2013-11-18 21:54:00,
2013-11-18 16:23:00,74.0,38.0,-100.00,ENE,67,6.0,18.0,27,0.00,,,0.00,276.000000,,2013-11-18 22:23:00,
2013-11-18 16:33:00,74.0,38.0,-100.00,ENE,67,6.0,18.0,27,0.00,,,0.00,276.000000,,2013-11-18 22:33:00,
2013-11-18 16:43:00,74.0,38.0,-100.00,ENE,67,6.0,18.0,27,0.00,,,0.00,276.000000,,2013-11-18 22:43:00,
2013-11-18 16:53:00,74.0,38.0,-100.00,ENE,67,6.0,18.0,27,0.00,,,0.00,276.000000,,2013-11-18 22:53:00,
2013-11-18 17:02:00,74.0,38.0,-100.00,ENE,67,6.0,18.0,27,0.00,,,0.00,276.000000,,2013-11-18 23:02:00,
2013-11-18 17:42:00,71.0,39.0,-100.00,ENE,77,3.0,12.0,31,0.00,,,0.00,66.000000,,2013-11-18 23:42:00,
2013-11-18 17:52:00,71.0,39.0,-100.00,ENE,77,3.0,12.0,31,0.00,,,0.00,66.000000,,2013-11-18 23:52:00,
2013-11-18 18:01:00,71.0,39.0,-100.00,ENE,77,3.0,12.0,31,0.00,,,0.00,66.000000,,2013-11-19 00:01:00,
2013-11-18 18:22:00,66.0,36.0,-100.00,NE,54,3.0,8.0,33,0.00,,,0.00,3.000000,,2013-11-19 00:22:00,
2013-11-18 18:32:00,66.0,36.0,-100.00,NE,54,3.0,8.0,33,0.00,,,0.00,3.000000,,2013-11-19 00:32:00,
2013-11-18 18:42:00,66.0,36.0,-100.00,NE,54,3.0,8.0,33,0.00,,,0.00,3.000000,,2013-11-19 00:42:00,
2013-11-18 18:52:00,66.0,36.0,-100.00,NE,54,3.0,8.0,33,0.00,,,0.00,3.000000,,2013-11-19 00:52:00,
2013-11-18 19:02:00,66.0,36.0,-100.00,NE,54,3.0,8.0,33,0.00,,,0.00,3.000000,,2013-11-19 01:02:00,
2013-11-18 19:42:00,64.0,41.0,-100.00,NE,42,4.0,7.0,43,0.00,,,0.00,0.000000,,2013-11-19 01:42:00,
2013-11-18 19:52:00,64.0,41.0,-100.00,NE,42,4.0,7.0,43,0.00,,,0.00,0.000000,,2013-11-19 01:52:00,
2013-11-18 20:01:00,64.0,41.0,-100.00,NE,42,4.0,7.0,43,0.00,,,0.00,0.000000,,2013-11-19 02:01:00,
2013-11-18 20:42:00,64.0,39.0,-100.00,NE,53,4.0,8.0,39,0.00,,,0.00,0.000000,,2013-11-19 02:42:00,
2013-11-18 20:52:00,64.0,39.0,-100.00,NE,53,4.0,8.0,39,0.00,,,0.00,0.000000,,2013-11-19 02:52:00,
2013-11-18 21:02:00,64.0,39.0,-100.00,NE,53,4.0,8.0,39,0.00,,,0.00,0.000000,,2013-11-19 03:02:00,
2013-11-18 21:43:00,61.0,39.0,-100.00,ENE,57,3.0,7.0,44,0.00,,,0.00,0.000000,,2013-11-19 03:43:00,
2013-11-18 21:54:00,61.0,39.0,-100.00,ENE,57,3.0,7.0,44,0.00,,,0.00,0.000000,,2013-11-19 03:54:00,
2013-11-18 22:42:00,59.0,39.0,-100.00,NE,44,4.0,8.0,48,0.00,,,0.00,0.000000,,2013-11-19 04:42:00,
2013-11-18 22:52:00,59.0,39.0,-100.00,NE,44,4.0,8.0,48,0.00,,,0.00,0.000000,,2013-11-19 04:52:00,
2013-11-18 23:02:00,59.0,39.0,-100.00,NE,44,4.0,8.0,48,0.00,,,0.00,0.000000,,2013-11-19 05:02:00,
2013-11-18 23:43:00,59.0,41.0,-100.00,NE,48,3.0,7.0,51,0.00,,,0.00,0.000000,,2013-11-19 05:43:00,
2013-11-18 23:53:00,59.0,41.0,-100.00,NE,48,3.0,7.0,51,0.00,,,0.00,0.000000,,2013-11-19 05:53:00,